Crescent Beach, South Carolina
Current Conditions -  °F | °C
As of 12:53 AM on Wednesday 22 Oct 2014 (Local Time) from KCRE Reporting Station
Few Clouds Few Clouds  
Wind Chill: 63°   Ceiling: Unl
Heat Index: 63°   Visibility: 10mi
Dew Point: 49°   Wind: 7mph
Humidity: 60%   Direction: 350°N
Pressure: 29.9"   Gusts: NA
Location:  33.8371°N, 78.6471°W
Report Text: KCRE 220453Z AUTO 35006KT 10SM FEW080 17/09 A2990 RMK AO1 SLP125 T01720094 402500128
Loading
Personal Weather Stations






























Interactive Weather Map
Tropical Storm Tracking
New forecast layout! Learn more

10-Day Weather Forecast

Advertisements
Track Severe Weather on mobile